createdAt,value
2018-09-18T00:00:01.137Z,31.0
2018-09-18T00:05:01.146Z,31.6
2018-09-18T00:15:01.095Z,31.6
2018-09-18T00:20:01.107Z,31.0
2018-09-18T00:25:01.092Z,30.7
2018-09-18T00:30:01.094Z,29.2
2018-09-18T00:35:01.139Z,27.7
2018-09-18T00:40:01.098Z,27.5
2018-09-18T00:45:01.097Z,26.8
2018-09-18T00:50:01.105Z,27.2
2018-09-18T00:55:01.102Z,28.1
2018-09-18T01:01:01.124Z,29.0
2018-09-18T01:06:01.129Z,28.5
2018-09-18T01:11:06.102Z,28.8
2018-09-18T01:16:06.099Z,28.7
2018-09-18T01:21:06.102Z,28.5
2018-09-18T01:26:01.122Z,27.7
2018-09-18T01:31:06.104Z,28.1
2018-09-18T01:36:01.134Z,29.9
2018-09-18T01:41:06.111Z,31.3
2018-09-18T01:47:01.093Z,31.4
2018-09-18T01:52:01.090Z,31.6
2018-09-18T01:57:01.094Z,31.2
2018-09-18T02:02:01.186Z,29.9
2018-09-18T02:07:01.096Z,27.6
2018-09-18T02:12:01.125Z,26.4
2018-09-18T02:17:06.102Z,26.5
2018-09-18T02:22:01.136Z,25.6
2018-09-18T02:27:01.121Z,25.4
2018-09-18T02:43:01.096Z,24.8
2018-09-18T02:48:01.128Z,25.6
2018-09-18T02:53:06.100Z,24.2
2018-09-18T02:58:01.160Z,25.1
2018-09-18T03:03:01.140Z,26.0
2018-09-18T03:08:01.138Z,26.3
2018-09-18T03:13:01.132Z,26.4
2018-09-18T03:18:01.091Z,27.9
2018-09-18T03:23:01.097Z,28.2
2018-09-18T03:33:01.098Z,29.1
2018-09-18T03:38:01.102Z,29.7
2018-09-18T03:43:01.170Z,29.0
2018-09-18T03:53:01.095Z,28.6
2018-09-18T03:58:06.093Z,27.0
2018-09-18T04:03:06.117Z,26.8
2018-09-18T04:08:06.102Z,28.4
2018-09-18T04:18:06.102Z,30.0
2018-09-18T04:23:06.115Z,31.0
2018-09-18T04:28:01.104Z,31.3
2018-09-18T04:33:01.093Z,31.1
2018-09-18T04:38:01.166Z,31.6
2018-09-18T04:43:01.097Z,30.2
2018-09-18T04:48:01.098Z,30.7
2018-09-18T04:53:01.097Z,31.8
2018-09-18T04:58:01.153Z,31.3
2018-09-18T05:03:01.104Z,30.9
2018-09-18T05:08:01.109Z,30.7
2018-09-18T05:13:01.157Z,30.0
2018-09-18T05:18:01.093Z,29.0
2018-09-18T05:28:01.095Z,28.2
2018-09-18T05:33:01.097Z,29.2
2018-09-18T05:38:01.164Z,29.6
2018-09-18T05:43:01.100Z,29.5
2018-09-18T05:48:01.126Z,29.8
2018-09-18T05:53:01.102Z,30.1
2018-09-18T05:58:01.106Z,29.9
2018-09-18T06:04:01.093Z,29.4
2018-09-18T06:09:01.104Z,27.8
2018-09-18T06:14:01.102Z,27.0
2018-09-18T06:19:01.127Z,26.3
2018-09-18T06:24:01.099Z,26.2
2018-09-18T06:29:01.107Z,26.0
2018-09-18T06:34:01.116Z,26.7
2018-09-18T06:39:01.088Z,26.6
2018-09-18T06:44:01.095Z,26.8
2018-09-18T06:49:01.506Z,26.4
2018-09-18T06:54:01.098Z,25.8
2018-09-18T06:59:01.095Z,26.4
2018-09-18T07:04:01.100Z,26.6
2018-09-18T07:14:01.102Z,26.0
2018-09-18T07:19:01.103Z,26.7
2018-09-18T07:24:01.111Z,26.2
2018-09-18T07:29:01.109Z,26.3
2018-09-18T07:34:01.095Z,26.6
2018-09-18T07:39:01.094Z,26.7
2018-09-18T07:49:01.096Z,26.4
2018-09-18T07:54:01.097Z,25.5
2018-09-18T07:59:01.110Z,25.0
2018-09-18T08:04:01.107Z,24.4
2018-09-18T08:09:01.157Z,23.3
2018-09-18T08:14:01.091Z,23.2
2018-09-18T08:19:01.305Z,23.7
2018-09-18T08:24:01.094Z,23.0
2018-09-18T08:29:01.094Z,22.8
2018-09-18T08:34:01.101Z,22.9
2018-09-18T08:39:01.112Z,21.9
2018-09-18T08:44:01.108Z,21.6
2018-09-18T08:49:01.133Z,21.3
2018-09-18T08:54:01.138Z,22.3
2018-09-18T09:04:01.139Z,22.7
2018-09-18T09:09:01.241Z,21.9
2018-09-18T09:14:01.100Z,21.6
2018-09-18T09:19:01.122Z,20.6
2018-09-18T09:24:01.127Z,20.0
2018-09-18T09:29:01.101Z,19.8
2018-09-18T09:34:01.135Z,19.4
2018-09-18T09:39:01.101Z,19.7
2018-09-18T09:44:01.091Z,19.3
2018-09-18T09:54:01.103Z,18.7
2018-09-18T10:09:01.102Z,18.6
2018-09-18T10:14:01.099Z,18.0
2018-09-18T10:19:01.102Z,17.7
2018-09-18T10:24:01.109Z,18.1
2018-09-18T10:29:01.101Z,17.4
2018-09-18T10:34:01.100Z,17.0
2018-09-18T10:39:01.099Z,17.5
2018-09-18T10:44:01.137Z,17.8
2018-09-18T10:49:01.103Z,17.4
2018-09-18T10:54:01.117Z,17.6
2018-09-18T10:59:01.088Z,17.7
2018-09-18T11:04:06.094Z,17.3
2018-09-18T11:09:06.167Z,17.2
2018-09-18T11:14:01.312Z,16.9
2018-09-18T11:19:01.211Z,17.2
2018-09-18T11:24:01.171Z,16.8
2018-09-18T11:29:01.148Z,16.2
2018-09-18T11:34:01.097Z,15.8
2018-09-18T11:39:01.265Z,15.5
2018-09-18T11:44:01.149Z,14.8
2018-09-18T11:49:01.140Z,15.3
2018-09-18T11:54:01.130Z,15.7
2018-09-18T12:04:01.186Z,15.6
2018-09-18T12:09:01.225Z,15.7
2018-09-18T12:14:01.110Z,15.6
2018-09-18T12:20:01.522Z,15.4
2018-09-18T12:25:01.095Z,15.2
2018-09-18T12:30:01.114Z,15.1
2018-09-18T12:35:01.098Z,15.0
2018-09-18T12:40:01.098Z,14.8
2018-09-18T12:45:01.119Z,14.6
2018-09-18T12:50:01.489Z,14.7
2018-09-18T12:55:01.099Z,15.4
2018-09-18T13:00:01.174Z,15.0
2018-09-18T13:05:01.094Z,14.8
2018-09-18T13:10:01.240Z,15.0
2018-09-18T13:15:01.148Z,14.7
2018-09-18T13:30:06.137Z,14.2
2018-09-18T13:35:01.138Z,13.5
2018-09-18T13:40:01.096Z,13.6
2018-09-18T13:45:06.106Z,12.4
2018-09-18T13:50:01.136Z,13.0
2018-09-18T13:55:01.142Z,13.1
2018-09-18T14:00:01.213Z,13.1
2018-09-18T14:05:01.148Z,12.9
2018-09-18T14:10:01.145Z,13.2
2018-09-18T14:15:06.276Z,12.6
2018-09-18T14:25:01.171Z,13.0
2018-09-18T14:30:01.097Z,13.9
2018-09-18T14:35:01.103Z,13.7
2018-09-18T14:40:01.216Z,13.6
